Time;durP1;ratioP1;P1;durP2;ratioP2;P2;SDS_P1;SDS_P2;PMS_P1;PMS_P2;Temp;Humidity;BMP_temperature;BMP_pressure;BME280_temperature;BME280_humidity;BME280_pressure;Samples;Min_cycle;Max_cycle;Signal;HPM_P1;HPM_P2
2021/05/03 00:01:45;;;;;;;10.65;8.27;;;6.30;99.90;;;;;;4995460;28;20106;-79
2021/05/03 00:04:11;;;;;;;11.02;9.32;;;6.30;99.90;;;;;;4992962;28;20102;-79
2021/05/03 00:06:36;;;;;;;10.90;9.20;;;6.20;99.90;;;;;;4989300;28;20079;-79
2021/05/03 00:09:03;;;;;;;10.88;9.13;;;6.20;99.90;;;;;;4971347;28;20095;-79
2021/05/03 00:11:29;;;;;;;11.55;8.52;;;6.20;99.90;;;;;;4979174;28;20091;-79
2021/05/03 00:13:54;;;;;;;10.90;8.70;;;6.20;99.90;;;;;;4989936;28;20095;-79
2021/05/03 00:16:20;;;;;;;9.77;8.73;;;6.10;99.90;;;;;;4976244;28;20094;-79
2021/05/03 00:18:45;;;;;;;9.90;8.80;;;6.20;99.90;;;;;;4987571;28;20214;-79
2021/05/03 00:21:11;;;;;;;10.45;8.82;;;6.20;99.90;;;;;;4985972;28;20107;-78
2021/05/03 00:23:36;;;;;;;12.63;8.75;;;6.20;99.90;;;;;;4978483;28;20553;-78
2021/05/03 00:26:03;;;;;;;10.80;9.00;;;6.10;99.90;;;;;;4966066;28;20103;-77
2021/05/03 00:28:29;;;;;;;11.02;9.25;;;6.30;99.90;;;;;;4990626;28;20087;-78
2021/05/03 00:30:54;;;;;;;11.98;9.02;;;6.20;99.90;;;;;;4974540;28;20071;-77
2021/05/03 00:33:20;;;;;;;10.32;8.85;;;6.10;99.90;;;;;;4991580;28;20098;-76
2021/05/03 00:35:45;;;;;;;10.55;9.45;;;6.00;99.90;;;;;;4988267;28;20077;-76
2021/05/03 00:38:11;;;;;;;10.35;8.73;;;6.00;99.90;;;;;;4974575;28;20082;-76
2021/05/03 00:40:36;;;;;;;11.43;9.38;;;6.00;99.90;;;;;;4988677;28;20536;-76
2021/05/03 00:43:02;;;;;;;9.40;8.40;;;6.00;99.90;;;;;;4977028;28;20082;-76
2021/05/03 00:45:30;;;;;;;11.68;8.68;;;6.00;99.90;;;;;;4973361;28;20078;-77
2021/05/03 00:47:56;;;;;;;11.27;8.68;;;6.10;99.90;;;;;;4973948;28;20165;-77
2021/05/03 00:50:24;;;;;;;9.65;7.85;;;6.10;99.90;;;;;;4976637;28;20141;-78
2021/05/03 00:52:50;;;;;;;9.68;8.00;;;6.30;99.90;;;;;;4982573;28;20122;-78
2021/05/03 00:55:16;;;;;;;9.85;8.43;;;6.20;99.90;;;;;;4992533;28;20081;-77
2021/05/03 00:57:42;;;;;;;10.90;8.70;;;6.20;99.90;;;;;;4993411;28;20086;-78
2021/05/03 01:00:11;;;;;;;12.32;10.10;;;6.20;99.90;;;;;;4965554;28;20095;-78
2021/05/03 01:02:37;;;;;;;10.95;9.40;;;6.20;99.90;;;;;;4989713;28;20082;-78
2021/05/03 01:05:04;;;;;;;11.40;9.02;;;6.20;99.90;;;;;;4972809;28;20087;-78
2021/05/03 01:07:29;;;;;;;10.25;8.98;;;6.20;99.90;;;;;;4994230;28;20082;-78
2021/05/03 01:09:55;;;;;;;10.20;8.75;;;6.20;99.90;;;;;;4975766;28;20106;-78
2021/05/03 01:12:21;;;;;;;9.77;8.40;;;6.20;99.90;;;;;;4967642;28;20474;-77
2021/05/03 01:14:46;;;;;;;11.27;8.80;;;6.20;99.90;;;;;;4985849;28;20087;-78
2021/05/03 01:17:12;;;;;;;11.02;8.80;;;6.30;99.90;;;;;;4984731;28;20075;-77
2021/05/03 01:19:37;;;;;;;11.90;9.02;;;6.30;99.90;;;;;;4983009;28;20107;-77
2021/05/03 01:22:03;;;;;;;10.35;8.10;;;6.40;99.90;;;;;;4980973;28;20089;-76
2021/05/03 01:24:28;;;;;;;10.32;8.50;;;6.30;99.90;;;;;;4975143;28;20145;-78
2021/05/03 01:26:54;;;;;;;9.63;7.57;;;6.30;99.90;;;;;;4975117;28;20087;-78
2021/05/03 01:29:20;;;;;;;9.77;8.20;;;6.30;99.90;;;;;;4992671;28;20113;-76
2021/05/03 01:31:47;;;;;;;8.52;7.38;;;6.20;99.90;;;;;;4976851;28;20111;-77
2021/05/03 01:34:14;;;;;;;8.70;7.05;;;6.10;99.90;;;;;;4974011;28;20559;-78
2021/05/03 01:36:41;;;;;;;8.88;7.15;;;6.10;99.90;;;;;;4975626;28;20071;-76
2021/05/03 01:39:07;;;;;;;8.57;7.68;;;6.10;99.90;;;;;;4970565;28;20091;-78
2021/05/03 01:41:34;;;;;;;10.90;8.10;;;6.10;99.90;;;;;;4961912;28;20087;-78
2021/05/03 01:44:00;;;;;;;9.05;7.85;;;6.00;99.90;;;;;;4974192;28;20174;-78
2021/05/03 01:46:26;;;;;;;8.02;7.05;;;6.00;99.90;;;;;;4978206;28;20517;-77
2021/05/03 01:48:52;;;;;;;9.35;7.40;;;6.10;99.90;;;;;;4975657;28;20563;-78
2021/05/03 01:51:17;;;;;;;8.82;6.85;;;6.20;99.90;;;;;;4993585;28;20075;-77
2021/05/03 01:53:43;;;;;;;11.93;7.68;;;6.20;99.90;;;;;;4990779;28;20162;-78
2021/05/03 01:56:09;;;;;;;8.57;7.30;;;6.20;99.90;;;;;;4967464;28;20101;-78
2021/05/03 01:58:35;;;;;;;7.80;7.03;;;6.10;99.90;;;;;;4990869;28;20497;-77
2021/05/03 02:01:01;;;;;;;9.93;6.90;;;6.10;99.90;;;;;;4997323;28;20442;-76
2021/05/03 02:03:28;;;;;;;9.93;7.32;;;6.10;99.90;;;;;;4991192;28;20102;-76
2021/05/03 02:05:54;;;;;;;7.57;6.72;;;6.10;99.90;;;;;;4975914;28;20089;-77
2021/05/03 02:08:20;;;;;;;9.65;7.10;;;6.10;99.90;;;;;;4972866;28;20087;-78
2021/05/03 02:10:47;;;;;;;10.27;7.32;;;6.10;99.90;;;;;;4981447;28;20079;-77
2021/05/03 02:13:14;;;;;;;9.95;7.20;;;6.20;99.90;;;;;;4989457;28;20518;-78
2021/05/03 02:15:41;;;;;;;8.65;7.53;;;6.20;99.90;;;;;;4982573;28;20474;-77
2021/05/03 02:18:07;;;;;;;9.32;7.03;;;6.10;99.90;;;;;;4974711;28;20567;-78
2021/05/03 02:20:33;;;;;;;9.93;7.60;;;6.00;99.90;;;;;;4989729;28;20368;-77
2021/05/03 02:23:00;;;;;;;8.20;6.78;;;5.90;99.90;;;;;;4990950;28;20555;-78
2021/05/03 02:25:26;;;;;;;8.70;7.40;;;5.90;99.90;;;;;;4973083;28;20079;-78
2021/05/03 02:27:52;;;;;;;10.60;7.80;;;5.90;99.90;;;;;;4977075;28;20079;-77
2021/05/03 02:30:18;;;;;;;8.82;7.07;;;6.00;99.90;;;;;;4972529;28;20094;-77
2021/05/03 02:32:44;;;;;;;10.70;7.28;;;6.00;99.90;;;;;;4986947;28;20087;-78
2021/05/03 02:35:19;;;;;;;9.07;7.80;;;6.00;99.90;;;;;;4985674;28;20459;-78
2021/05/03 02:37:48;;;;;;;11.05;8.40;;;6.10;99.90;;;;;;4969640;28;20089;-78
2021/05/03 02:40:16;;;;;;;10.27;8.32;;;6.00;99.90;;;;;;4974626;28;20165;-77
2021/05/03 02:42:48;;;;;;;9.60;7.32;;;6.00;99.90;;;;;;4985697;28;20138;-78
2021/05/03 02:45:14;;;;;;;7.55;6.72;;;5.90;99.90;;;;;;4992709;28;20083;-78
2021/05/03 02:47:41;;;;;;;9.75;7.38;;;6.00;99.90;;;;;;4975747;28;20118;-78
2021/05/03 02:50:08;;;;;;;9.55;7.45;;;5.90;99.90;;;;;;4992962;28;20114;-77
2021/05/03 02:52:34;;;;;;;9.98;7.35;;;5.90;99.90;;;;;;4985077;28;20091;-78
2021/05/03 02:54:59;;;;;;;8.95;7.00;;;6.00;99.90;;;;;;4991264;28;20087;-77
2021/05/03 02:57:25;;;;;;;9.35;7.88;;;6.00;99.90;;;;;;4986277;28;20101;-78
2021/05/03 02:59:51;;;;;;;10.27;7.90;;;6.00;99.90;;;;;;4982747;28;20559;-78
2021/05/03 03:02:16;;;;;;;8.88;7.88;;;5.90;99.90;;;;;;4990383;28;20079;-77
2021/05/03 03:04:42;;;;;;;10.05;7.63;;;5.90;99.90;;;;;;4973755;28;20087;-78
2021/05/03 03:07:07;;;;;;;8.52;6.80;;;5.80;99.90;;;;;;4986935;28;20177;-78
2021/05/03 03:09:33;;;;;;;7.85;6.43;;;5.80;99.90;;;;;;4970040;28;20106;-78
2021/05/03 03:11:59;;;;;;;9.63;7.07;;;5.80;99.90;;;;;;4985915;28;20098;-77
2021/05/03 03:14:26;;;;;;;8.82;6.82;;;5.80;99.90;;;;;;4980666;28;20079;-77
2021/05/03 03:16:51;;;;;;;9.35;7.70;;;5.80;99.90;;;;;;4969409;28;20083;-78
2021/05/03 03:19:17;;;;;;;8.32;6.93;;;5.80;99.90;;;;;;4968494;28;20109;-77
2021/05/03 03:21:43;;;;;;;8.50;7.07;;;5.70;99.90;;;;;;4991266;28;20089;-78
2021/05/03 03:24:09;;;;;;;8.70;7.03;;;5.70;99.90;;;;;;4972312;28;20079;-77
2021/05/03 03:26:34;;;;;;;8.82;7.40;;;5.60;99.90;;;;;;4967947;28;20133;-78
2021/05/03 03:29:00;;;;;;;9.25;7.07;;;5.60;99.90;;;;;;4991370;28;20094;-78
2021/05/03 03:31:26;;;;;;;8.10;6.65;;;5.60;99.90;;;;;;4988408;28;20083;-78
2021/05/03 03:33:51;;;;;;;8.55;7.28;;;5.70;99.90;;;;;;4973834;28;20520;-77
2021/05/03 03:36:17;;;;;;;7.72;6.65;;;5.70;99.90;;;;;;4981823;28;20503;-78
2021/05/03 03:38:42;;;;;;;9.25;7.35;;;5.70;99.90;;;;;;4984291;28;20095;-76
2021/05/03 03:41:08;;;;;;;9.27;7.60;;;5.60;99.90;;;;;;4982668;28;20078;-76
2021/05/03 03:43:34;;;;;;;8.52;7.20;;;5.70;99.90;;;;;;4981868;28;20126;-77
2021/05/03 03:45:59;;;;;;;10.65;7.78;;;5.70;99.90;;;;;;4979425;28;20093;-76
2021/05/03 03:48:25;;;;;;;11.95;8.80;;;5.60;99.90;;;;;;4979218;28;20185;-76
2021/05/03 03:50:51;;;;;;;10.13;7.80;;;5.60;99.90;;;;;;4991620;28;20078;-76
2021/05/03 03:53:16;;;;;;;8.25;7.18;;;5.70;99.90;;;;;;4992124;28;20589;-76
2021/05/03 03:55:42;;;;;;;9.82;7.75;;;5.60;99.90;;;;;;4979788;28;20075;-76
2021/05/03 03:58:08;;;;;;;9.60;7.60;;;5.60;99.90;;;;;;4984503;28;20072;-76
2021/05/03 04:00:33;;;;;;;8.10;7.05;;;5.60;99.90;;;;;;4973745;28;20701;-77
2021/05/03 04:03:00;;;;;;;10.73;8.25;;;5.80;99.90;;;;;;4974065;28;20125;-76
2021/05/03 04:10:54;;;;;;;8.68;7.35;;;5.80;99.90;;;;;;4979546;28;20416;-77
2021/05/03 04:21:30;;;;;;;10.70;8.32;;;5.70;99.90;;;;;;4974268;28;20129;-76
2021/05/03 04:24:51;;;;;;;9.73;8.43;;;5.70;99.90;;;;;;4984952;28;20102;-76
2021/05/03 04:26:42;;;;;;;9.48;7.75;;;5.80;99.90;;;;;;4981287;28;20106;-78
2021/05/03 04:29:07;;;;;;;8.20;7.15;;;5.90;99.90;;;;;;4985240;28;20436;-77
2021/05/03 04:31:33;;;;;;;9.43;7.38;;;5.90;99.90;;;;;;4978392;28;20075;-78
2021/05/03 04:33:58;;;;;;;10.63;8.77;;;6.00;99.90;;;;;;4975031;28;20088;-78
2021/05/03 04:36:24;;;;;;;10.13;7.80;;;5.90;99.90;;;;;;4991469;28;20166;-78
2021/05/03 04:38:50;;;;;;;9.18;7.43;;;5.90;99.90;;;;;;4990822;28;20102;-78
2021/05/03 04:41:15;;;;;;;11.27;8.38;;;6.00;99.90;;;;;;4983031;28;20122;-78
2021/05/03 04:43:41;;;;;;;8.95;6.93;;;6.00;99.90;;;;;;4986321;28;20753;-77
2021/05/03 04:46:07;;;;;;;10.70;7.95;;;6.00;99.90;;;;;;4971223;28;20075;-78
2021/05/03 04:48:33;;;;;;;8.80;7.43;;;6.00;99.90;;;;;;4976154;28;20451;-76
2021/05/03 04:50:58;;;;;;;10.52;7.93;;;6.00;99.90;;;;;;4972468;28;20158;-78
2021/05/03 04:53:25;;;;;;;11.57;8.02;;;6.00;99.90;;;;;;4973703;28;20130;-81
2021/05/03 04:55:50;;;;;;;11.73;7.82;;;6.00;99.90;;;;;;4991215;28;20086;-78
2021/05/03 04:58:16;;;;;;;10.25;8.10;;;6.00;99.90;;;;;;4981605;28;20078;-77
2021/05/03 05:00:42;;;;;;;10.95;8.60;;;6.00;99.90;;;;;;4976672;28;20085;-78
2021/05/03 05:03:08;;;;;;;10.63;9.50;;;6.00;99.90;;;;;;4975841;28;20090;-77
2021/05/03 05:05:33;;;;;;;12.02;8.52;;;6.10;99.90;;;;;;4992829;28;20079;-78
2021/05/03 05:07:59;;;;;;;10.88;8.63;;;6.00;99.90;;;;;;4976326;28;20203;-78
2021/05/03 05:10:25;;;;;;;10.00;8.27;;;6.10;99.90;;;;;;4971961;28;20079;-78
2021/05/03 05:12:51;;;;;;;10.07;7.97;;;6.20;99.90;;;;;;4975426;28;20102;-78
2021/05/03 05:15:17;;;;;;;9.82;7.50;;;6.10;99.90;;;;;;4988130;28;20137;-78
2021/05/03 05:17:43;;;;;;;10.30;7.80;;;6.20;99.90;;;;;;4991522;28;20717;-78
2021/05/03 05:20:09;;;;;;;8.65;7.15;;;6.30;99.90;;;;;;4973617;28;20601;-79
2021/05/03 05:22:39;;;;;;;11.32;8.13;;;6.10;99.90;;;;;;4975839;28;20478;-78
2021/05/03 05:25:08;;;;;;;9.52;7.78;;;6.20;99.90;;;;;;4990126;28;20173;-75
2021/05/03 05:27:34;;;;;;;11.93;8.02;;;6.20;99.90;;;;;;4975817;28;20526;-77
2021/05/03 05:30:00;;;;;;;9.35;7.80;;;6.20;99.90;;;;;;4983233;28;20182;-77
2021/05/03 05:32:25;;;;;;;8.90;7.22;;;6.20;99.90;;;;;;4973413;28;20153;-77
2021/05/03 05:34:51;;;;;;;10.82;7.32;;;6.40;99.90;;;;;;4975633;28;20079;-77
2021/05/03 05:37:16;;;;;;;10.70;7.57;;;6.40;99.90;;;;;;4954378;28;20075;-77
2021/05/03 05:39:42;;;;;;;9.70;7.75;;;6.50;99.90;;;;;;4974991;28;20087;-76
2021/05/03 05:42:08;;;;;;;11.07;7.97;;;6.50;99.90;;;;;;5008274;28;20083;-76
2021/05/03 05:44:33;;;;;;;9.68;8.15;;;6.50;99.90;;;;;;4982119;28;20087;-77
2021/05/03 05:46:59;;;;;;;9.77;7.38;;;6.50;99.90;;;;;;4969084;28;20482;-78
2021/05/03 05:49:24;;;;;;;9.43;7.45;;;6.60;99.90;;;;;;4960710;28;20135;-78
2021/05/03 05:51:50;;;;;;;9.68;6.95;;;6.70;99.90;;;;;;4984604;28;20095;-79
2021/05/03 05:54:16;;;;;;;9.65;7.25;;;6.80;99.90;;;;;;4972340;28;20071;-78
2021/05/03 05:56:41;;;;;;;8.77;7.22;;;6.70;99.90;;;;;;4990402;28;20079;-78
2021/05/03 05:59:07;;;;;;;10.32;7.35;;;6.80;99.90;;;;;;4990052;28;20774;-77
2021/05/03 06:01:33;;;;;;;9.90;7.97;;;6.80;99.90;;;;;;4983419;28;20547;-78
2021/05/03 06:03:58;;;;;;;9.32;7.22;;;6.90;99.90;;;;;;4983817;28;20063;-77
2021/05/03 06:06:24;;;;;;;7.35;6.28;;;6.90;99.90;;;;;;4971064;28;20076;-77
2021/05/03 06:08:49;;;;;;;10.13;7.85;;;6.90;99.90;;;;;;4977226;28;20142;-78
2021/05/03 06:11:15;;;;;;;10.45;8.15;;;7.00;99.90;;;;;;4979133;28;20101;-76
2021/05/03 06:13:41;;;;;;;9.10;7.80;;;7.10;99.90;;;;;;4989760;28;20450;-77
2021/05/03 06:16:07;;;;;;;9.15;7.35;;;7.30;99.90;;;;;;4977376;28;20079;-77
2021/05/03 06:18:33;;;;;;;9.30;7.35;;;7.30;99.90;;;;;;4989235;28;20091;-77
2021/05/03 06:20:59;;;;;;;9.63;7.30;;;7.40;99.90;;;;;;4973102;28;20153;-76
2021/05/03 06:23:24;;;;;;;8.73;7.68;;;7.40;99.90;;;;;;4989092;28;20264;-77
2021/05/03 06:25:50;;;;;;;10.55;7.10;;;7.50;99.90;;;;;;4977742;28;20079;-77
2021/05/03 06:28:15;;;;;;;7.93;6.70;;;7.50;99.90;;;;;;4980255;28;20202;-77
2021/05/03 06:30:41;;;;;;;9.30;7.90;;;7.50;99.90;;;;;;4982481;28;20079;-76
2021/05/03 06:33:07;;;;;;;8.50;7.25;;;7.70;99.90;;;;;;4983864;28;20155;-76
2021/05/03 06:35:33;;;;;;;8.30;6.97;;;7.70;99.90;;;;;;4988179;28;20153;-76
2021/05/03 06:37:59;;;;;;;8.68;7.28;;;7.80;99.90;;;;;;4968399;28;20075;-77
2021/05/03 06:40:25;;;;;;;9.70;7.68;;;7.80;99.90;;;;;;4987290;28;20122;-76
2021/05/03 06:42:51;;;;;;;9.27;7.80;;;7.90;99.90;;;;;;4971528;28;20488;-76
2021/05/03 06:45:21;;;;;;;8.50;7.32;;;7.90;99.90;;;;;;4978806;28;20158;-77
2021/05/03 06:47:49;;;;;;;10.23;8.07;;;7.90;99.90;;;;;;4959930;28;20071;-77
2021/05/03 06:50:15;;;;;;;9.27;7.45;;;8.00;99.90;;;;;;4973955;28;20470;-83
2021/05/03 06:52:44;;;;;;;12.57;6.80;;;8.10;99.90;;;;;;4961894;28;20098;-81
2021/05/03 06:55:11;;;;;;;8.75;6.97;;;8.30;99.90;;;;;;4989051;28;20071;-77
2021/05/03 06:57:36;;;;;;;7.95;6.28;;;8.40;99.90;;;;;;4986097;28;20110;-77
2021/05/03 07:00:04;;;;;;;7.80;6.50;;;8.30;99.90;;;;;;4982167;28;20497;-77
2021/05/03 07:02:30;;;;;;;8.52;7.20;;;8.40;99.90;;;;;;4988998;28;20107;-76
2021/05/03 07:04:55;;;;;;;8.75;6.95;;;8.50;99.90;;;;;;4958675;28;20103;-78
2021/05/03 07:07:21;;;;;;;10.13;7.00;;;8.70;99.90;;;;;;4984487;28;20079;-77
2021/05/03 07:18:31;;;;;;;9.85;6.25;;;8.60;99.90;;;;;;4969445;28;20098;-77
2021/05/03 07:21:31;;;;;;;9.50;7.03;;;8.70;99.90;;;;;;4921321;28;20232;-76
2021/05/03 07:24:41;;;;;;;9.75;7.50;;;8.80;99.90;;;;;;4969129;28;20118;-76
2021/05/03 07:27:26;;;;;;;;;;;;;;;;;;;;;
2021/05/03 07:29:52;;;;;;;9.65;6.72;;;8.90;99.90;;;;;;4975586;28;20091;-77
2021/05/03 07:32:26;;;;;;;9.00;6.47;;;8.80;99.90;;;;;;4993031;28;20181;-76
2021/05/03 07:35:39;;;;;;;9.05;7.40;;;8.80;99.90;;;;;;4996472;28;20077;-76
2021/05/03 07:41:44;;;;;;;8.75;6.88;;;8.70;99.90;;;;;;4913413;28;20179;-77
2021/05/03 07:44:47;;;;;;;8.40;6.25;;;9.00;99.90;;;;;;4975090;28;20067;-76
2021/05/03 07:48:05;;;;;;;8.05;6.60;;;9.00;99.90;;;;;;4981618;28;20071;-77
2021/05/03 07:54:21;;;;;;;;;;;;;;;;;;;;;
2021/05/03 07:59:56;;;;;;;7.18;5.55;;;9.30;99.90;;;;;;4977118;28;20109;-77
2021/05/03 08:02:22;;;;;;;7.18;6.35;;;9.30;99.90;;;;;;4973571;28;20083;-77
2021/05/03 08:04:47;;;;;;;8.73;6.35;;;9.50;99.90;;;;;;4975191;28;20079;-77
2021/05/03 08:07:13;;;;;;;7.13;6.32;;;9.50;99.90;;;;;;4987188;28;20102;-78
2021/05/03 08:09:39;;;;;;;12.15;7.50;;;9.30;99.90;;;;;;4987162;28;20099;-77
2021/05/03 08:12:06;;;;;;;9.48;7.93;;;9.30;99.90;;;;;;4975436;28;20107;-78
2021/05/03 08:14:31;;;;;;;10.38;7.40;;;9.30;99.90;;;;;;4989723;28;20069;-77
2021/05/03 08:17:08;;;;;;;9.05;6.93;;;9.40;99.90;;;;;;4985195;28;20075;-78
2021/05/03 08:19:35;;;;;;;9.25;7.03;;;9.60;99.90;;;;;;4983085;28;20102;-78
2021/05/03 08:22:02;;;;;;;11.20;7.18;;;9.70;99.90;;;;;;4991848;28;20157;-78
2021/05/03 08:24:32;;;;;;;10.55;7.50;;;9.90;99.90;;;;;;4984521;28;20082;-78
2021/05/03 08:27:02;;;;;;;6.75;5.47;;;9.90;99.90;;;;;;4974277;28;20587;-78
2021/05/03 08:29:28;;;;;;;11.45;7.15;;;9.70;99.90;;;;;;4983254;28;20117;-78
2021/05/03 08:31:54;;;;;;;10.85;6.50;;;9.80;99.90;;;;;;4985004;28;20094;-78
2021/05/03 08:34:20;;;;;;;9.55;6.65;;;9.70;99.90;;;;;;4995727;28;20104;-78
2021/05/03 08:36:46;;;;;;;9.02;6.85;;;9.70;99.90;;;;;;4997484;28;20090;-77
2021/05/03 08:39:12;;;;;;;7.90;6.30;;;9.70;99.90;;;;;;4997642;28;20102;-77
2021/05/03 08:41:39;;;;;;;8.10;6.18;;;9.50;99.90;;;;;;4993822;28;20075;-77
2021/05/03 08:44:07;;;;;;;8.88;5.90;;;9.60;99.90;;;;;;4990435;28;20150;-79
2021/05/03 08:46:39;;;;;;;8.25;6.35;;;9.50;99.90;;;;;;4994298;28;20621;-78
2021/05/03 08:49:18;;;;;;;7.75;5.90;;;9.80;99.90;;;;;;4993808;28;20466;-78
2021/05/03 08:51:49;;;;;;;8.60;6.55;;;9.90;99.90;;;;;;4986011;28;20105;-77
2021/05/03 08:54:26;;;;;;;8.60;5.70;;;9.80;99.90;;;;;;4986968;28;20117;-77
2021/05/03 08:56:54;;;;;;;10.90;6.72;;;9.70;99.90;;;;;;4962375;28;20518;-77
2021/05/03 08:59:20;;;;;;;7.38;5.68;;;9.70;99.90;;;;;;4994896;28;20122;-79
2021/05/03 09:01:48;;;;;;;6.80;4.60;;;9.70;99.90;;;;;;4999515;28;20085;-78
2021/05/03 09:04:14;;;;;;;6.25;4.38;;;9.30;99.90;;;;;;4998766;28;20107;-81
2021/05/03 09:07:10;;;;;;;7.95;4.32;;;9.00;99.90;;;;;;4980983;28;20438;-78
2021/05/03 09:09:38;;;;;;;4.72;4.13;;;8.50;99.90;;;;;;4974363;28;20566;-79
2021/05/03 09:12:10;;;;;;;5.95;4.43;;;8.30;99.90;;;;;;4992101;28;20133;-79
2021/05/03 09:14:54;;;;;;;7.85;5.30;;;8.30;99.90;;;;;;4988149;28;20656;-79
2021/05/03 09:17:27;;;;;;;5.10;3.90;;;8.10;99.90;;;;;;4984174;28;20082;-78
2021/05/03 09:19:58;;;;;;;6.03;4.40;;;7.50;99.90;;;;;;4999113;28;20365;-78
2021/05/03 09:22:35;;;;;;;5.47;4.15;;;7.60;99.90;;;;;;5000916;28;20075;-77
2021/05/03 09:25:32;;;;;;;5.88;4.30;;;7.70;99.90;;;;;;5002515;28;20066;-80
2021/05/03 09:28:33;;;;;;;5.85;4.53;;;8.00;99.90;;;;;;4985344;28;20129;-78
2021/05/03 09:31:00;;;;;;;5.97;4.20;;;8.30;99.90;;;;;;4933500;29;20139;-79
2021/05/03 09:33:30;;;;;;;7.40;5.32;;;8.30;99.90;;;;;;4976735;28;20110;-78
2021/05/03 09:36:05;;;;;;;9.68;5.72;;;8.40;99.90;;;;;;4977108;28;20081;-80
2021/05/03 09:38:41;;;;;;;6.88;4.85;;;8.50;99.90;;;;;;4977124;28;20185;-77
2021/05/03 09:41:20;;;;;;;7.10;4.30;;;8.70;99.90;;;;;;4991595;28;20093;-78
2021/05/03 09:43:50;;;;;;;6.97;4.05;;;8.90;99.90;;;;;;4997531;28;20071;-80
2021/05/03 09:46:25;;;;;;;4.53;3.70;;;9.30;99.90;;;;;;4993013;28;20067;-78
2021/05/03 09:48:56;;;;;;;6.50;3.83;;;9.40;99.90;;;;;;4981065;28;20091;-78
2021/05/03 09:51:34;;;;;;;4.82;3.47;;;9.50;99.90;;;;;;4988650;28;20075;-78
2021/05/03 09:54:09;;;;;;;11.88;5.35;;;9.50;99.90;;;;;;4995191;28;20074;-78
2021/05/03 09:56:44;;;;;;;6.22;5.07;;;9.70;99.90;;;;;;4990768;28;20106;-78
2021/05/03 09:59:36;;;;;;;6.47;4.07;;;9.80;99.90;;;;;;4980797;28;20121;-77
2021/05/03 10:02:09;;;;;;;7.93;3.78;;;9.50;99.90;;;;;;4972324;28;20087;-77
2021/05/03 10:04:35;;;;;;;6.60;3.20;;;9.30;99.90;;;;;;4983663;28;20573;-78
2021/05/03 10:07:02;;;;;;;6.00;3.65;;;9.00;99.90;;;;;;4974666;28;20075;-78
2021/05/03 10:09:30;;;;;;;4.40;3.45;;;8.80;99.90;;;;;;4967458;28;20090;-80
2021/05/03 10:11:55;;;;;;;4.22;3.25;;;8.80;99.90;;;;;;4965720;28;20102;-78
2021/05/03 10:14:21;;;;;;;4.38;3.30;;;8.80;99.90;;;;;;4991353;28;20520;-78
2021/05/03 10:16:48;;;;;;;4.93;3.40;;;8.60;99.90;;;;;;4969233;28;20071;-78
2021/05/03 10:19:18;;;;;;;4.90;3.90;;;8.80;99.90;;;;;;4990945;28;20201;-78
2021/05/03 10:21:44;;;;;;;5.40;3.42;;;8.90;99.90;;;;;;4974074;28;20117;-78
2021/05/03 10:24:12;;;;;;;5.00;3.47;;;9.00;99.90;;;;;;4992152;28;20502;-78
2021/05/03 10:26:43;;;;;;;4.95;3.78;;;9.20;99.90;;;;;;4991037;28;20095;-78
2021/05/03 10:29:27;;;;;;;4.32;3.38;;;9.30;99.90;;;;;;4984768;28;20467;-78
2021/05/03 10:32:03;;;;;;;6.82;3.92;;;9.20;99.90;;;;;;4975718;28;20125;-78
2021/05/03 10:34:42;;;;;;;6.05;3.38;;;9.10;99.90;;;;;;4973177;28;20115;-78
2021/05/03 10:37:38;;;;;;;5.28;4.00;;;9.20;99.90;;;;;;4972323;28;20078;-80
2021/05/03 10:40:33;;;;;;;5.22;4.22;;;9.30;99.90;;;;;;4962503;28;20467;-78
2021/05/03 10:43:02;;;;;;;6.03;4.43;;;9.30;99.90;;;;;;4987033;28;20066;-79
2021/05/03 10:45:45;;;;;;;5.07;3.33;;;9.50;99.90;;;;;;4988905;28;20075;-80
2021/05/03 10:48:36;;;;;;;4.68;3.55;;;9.40;99.90;;;;;;4956705;28;20083;-78
2021/05/03 10:51:03;;;;;;;6.25;4.10;;;9.40;99.90;;;;;;4958634;28;20075;-78
2021/05/03 10:56:16;;;;;;;3.70;3.33;;;9.70;99.90;;;;;;4991078;28;20071;-77
2021/05/03 10:59:06;;;;;;;5.10;3.53;;;10.00;99.90;;;;;;4973094;28;20098;-77
2021/05/03 11:01:52;;;;;;;5.38;4.00;;;9.90;99.90;;;;;;4969738;28;20090;-78
2021/05/03 11:04:24;;;;;;;4.63;3.47;;;9.90;99.90;;;;;;4991965;28;20443;-77
2021/05/03 11:06:49;;;;;;;4.35;3.45;;;10.00;99.90;;;;;;4968700;28;20600;-78
2021/05/03 11:09:30;;;;;;;5.05;3.97;;;9.90;99.90;;;;;;4971580;28;20185;-78
2021/05/03 11:12:22;;;;;;;5.07;4.00;;;10.00;99.90;;;;;;4965174;28;20164;-78
2021/05/03 11:15:20;;;;;;;5.95;4.18;;;10.10;99.90;;;;;;4969638;28;20083;-78
2021/05/03 11:18:17;;;;;;;4.75;3.38;;;9.90;99.90;;;;;;4980800;28;20688;-78
2021/05/03 11:21:07;;;;;;;6.00;4.00;;;10.30;99.90;;;;;;4981422;28;20122;-78
2021/05/03 11:23:35;;;;;;;5.15;3.58;;;10.20;99.90;;;;;;4990887;28;20079;-79
2021/05/03 11:26:02;;;;;;;5.05;4.10;;;10.10;99.90;;;;;;4980071;28;20102;-79
2021/05/03 11:28:33;;;;;;;5.95;4.28;;;10.80;99.90;;;;;;4981005;28;20107;-79
2021/05/03 11:31:11;;;;;;;6.03;4.78;;;11.00;99.90;;;;;;4988100;28;20071;-78
2021/05/03 11:33:49;;;;;;;5.72;4.57;;;11.00;99.90;;;;;;4987986;28;20090;-79
2021/05/03 11:36:21;;;;;;;7.15;4.82;;;11.10;99.90;;;;;;4993164;28;20078;-80
2021/05/03 11:46:36;;;;;;;6.03;4.57;;;11.40;99.90;;;;;;4987892;28;20085;-79
2021/05/03 11:49:11;;;;;;;6.57;4.60;;;11.30;99.90;;;;;;4984663;28;20083;-80
2021/05/03 11:51:57;;;;;;;7.45;4.38;;;11.30;99.90;;;;;;4986776;28;20466;-78
2021/05/03 11:54:23;;;;;;;6.15;4.57;;;11.20;99.90;;;;;;4978898;28;20129;-77
2021/05/03 11:56:59;;;;;;;5.28;4.60;;;11.30;99.90;;;;;;4982071;28;20080;-77
2021/05/03 11:59:26;;;;;;;8.05;3.97;;;11.20;99.00;;;;;;4983900;28;20091;-77
2021/05/03 12:01:58;;;;;;;5.13;3.78;;;11.20;98.70;;;;;;4961647;28;20082;-79
2021/05/03 12:04:41;;;;;;;4.60;4.10;;;11.20;99.90;;;;;;4990937;28;20071;-79
2021/05/03 12:07:30;;;;;;;4.32;3.58;;;11.50;99.90;;;;;;4993618;28;20063;-78
2021/05/03 12:10:04;;;;;;;4.35;3.25;;;11.50;96.70;;;;;;4986958;28;20126;-79
2021/05/03 12:12:39;;;;;;;9.45;3.95;;;11.40;96.40;;;;;;4998844;28;20628;-79
2021/05/03 12:15:15;;;;;;;5.32;4.00;;;11.20;96.20;;;;;;4975365;28;20087;-79
2021/05/03 12:17:42;;;;;;;4.47;3.17;;;11.30;98.70;;;;;;4988659;28;20411;-78
2021/05/03 12:20:13;;;;;;;4.32;3.38;;;11.30;95.70;;;;;;4996094;28;20257;-79
2021/05/03 12:22:50;;;;;;;3.72;3.22;;;11.30;96.90;;;;;;4997006;28;20110;-78
2021/05/03 12:25:15;;;;;;;4.72;3.90;;;11.30;97.90;;;;;;4986091;28;20078;-80
2021/05/03 12:27:41;;;;;;;4.75;3.72;;;11.60;96.40;;;;;;4973852;28;20067;-79
2021/05/03 12:30:07;;;;;;;5.65;3.92;;;11.80;98.40;;;;;;4978611;28;20083;-78
2021/05/03 12:32:38;;;;;;;4.45;3.90;;;11.80;98.80;;;;;;4983071;28;20091;-78
2021/05/03 12:35:10;;;;;;;5.85;3.95;;;11.70;97.90;;;;;;4971564;28;20074;-77
2021/05/03 12:37:36;;;;;;;6.47;3.95;;;11.50;96.80;;;;;;4978461;28;20175;-77
2021/05/03 12:40:06;;;;;;;4.68;3.67;;;11.40;95.30;;;;;;4989071;28;20134;-78
2021/05/03 12:42:35;;;;;;;4.72;3.90;;;11.40;95.10;;;;;;4985092;28;20136;-76
2021/05/03 12:45:04;;;;;;;4.55;3.63;;;11.40;97.40;;;;;;4980531;28;20831;-77
2021/05/03 12:47:57;;;;;;;4.18;3.38;;;11.60;99.80;;;;;;4978468;28;20090;-79
2021/05/03 12:50:33;;;;;;;5.85;3.85;;;11.60;98.60;;;;;;4990703;28;20098;-78
2021/05/03 12:53:19;;;;;;;6.43;4.68;;;11.70;98.70;;;;;;4973786;28;20104;-78
2021/05/03 12:58:50;;;;;;;3.80;3.40;;;11.80;98.30;;;;;;4995727;28;20161;-76
2021/05/03 13:05:06;;;;;;;3.88;3.20;;;12.00;96.90;;;;;;4984771;28;20086;-79
2021/05/03 13:22:38;;;;;;;4.63;3.40;;;12.30;94.00;;;;;;4976872;28;20700;-78
2021/05/03 13:28:07;;;;;;;5.18;4.00;;;12.10;95.00;;;;;;4989061;28;20134;-79
2021/05/03 13:30:37;;;;;;;6.67;4.43;;;11.90;96.90;;;;;;4982009;28;20078;-78
2021/05/03 13:33:04;;;;;;;5.75;4.32;;;11.80;95.90;;;;;;4978389;28;20115;-78
2021/05/03 13:35:32;;;;;;;4.95;3.45;;;11.90;97.40;;;;;;4975672;28;20071;-76
2021/05/03 13:37:58;;;;;;;4.88;3.85;;;11.80;93.90;;;;;;4982290;28;20138;-81
2021/05/03 13:40:23;;;;;;;6.05;3.72;;;11.90;96.20;;;;;;4963351;28;20182;-77
2021/05/03 13:42:53;;;;;;;4.95;3.53;;;12.00;97.30;;;;;;4987222;28;20103;-82
2021/05/03 13:45:23;;;;;;;4.38;3.70;;;12.00;97.00;;;;;;4997889;28;20142;-79
2021/05/03 13:47:49;;;;;;;8.13;4.15;;;12.00;92.80;;;;;;4976187;28;20078;-79
2021/05/03 13:50:16;;;;;;;4.43;3.45;;;12.00;90.90;;;;;;4988089;28;20099;-79
2021/05/03 13:52:42;;;;;;;4.20;3.28;;;11.80;91.10;;;;;;4979971;28;20087;-79
2021/05/03 13:55:09;;;;;;;5.05;3.88;;;12.00;91.60;;;;;;4977020;28;20079;-79
2021/05/03 13:57:35;;;;;;;5.97;3.55;;;12.20;96.50;;;;;;4975371;28;20074;-80
2021/05/03 14:00:03;;;;;;;5.60;3.83;;;12.00;91.50;;;;;;4975957;28;20095;-76
2021/05/03 14:02:29;;;;;;;3.85;2.95;;;11.90;92.50;;;;;;4974025;28;20143;-75
2021/05/03 14:04:54;;;;;;;3.42;2.85;;;11.80;92.00;;;;;;4988677;28;20114;-76
2021/05/03 14:07:20;;;;;;;4.95;3.17;;;11.80;94.30;;;;;;4963226;28;20086;-76
2021/05/03 14:09:46;;;;;;;5.53;3.30;;;11.90;94.60;;;;;;4982923;28;20090;-74
2021/05/03 14:12:12;;;;;;;3.83;3.25;;;11.80;91.10;;;;;;4986410;28;20547;-76
2021/05/03 14:14:38;;;;;;;2.80;2.47;;;11.90;90.50;;;;;;4987073;28;20079;-75
2021/05/03 14:17:07;;;;;;;3.20;2.50;;;11.90;90.60;;;;;;4981116;28;20075;-76